Time;durP1;ratioP1;P1;durP2;ratioP2;P2;SDS_P1;SDS_P2;PMS_P1;PMS_P2;Temp;Humidity;BMP_temperature;BMP_pressure;BME280_temperature;BME280_humidity;BME280_pressure;Samples;Min_cycle;Max_cycle;Signal;HPM_P1;HPM_P2
2022/09/16 00:02:25;;;;;;;;;;;18.70;97.30;;;;;;5071705;28;19970;-73
2022/09/16 00:04:53;;;;;;;;;;;18.90;97.30;;;;;;5071564;28;19913;-73
2022/09/16 00:07:19;;;;;;;;;;;18.90;96.70;;;;;;5071757;28;19917;-76
2022/09/16 00:09:46;;;;;;;;;;;19.00;95.90;;;;;;5071764;28;19913;-75
2022/09/16 00:12:13;;;;;;;;;;;19.10;96.10;;;;;;5071678;28;19908;-76
2022/09/16 00:14:39;;;;;;;;;;;19.10;96.40;;;;;;5071870;28;19916;-74
2022/09/16 00:17:06;;;;;;;;;;;19.20;95.80;;;;;;5070134;28;20001;-73
2022/09/16 00:19:32;;;;;;;;;;;19.30;95.80;;;;;;5069118;28;19909;-72
2022/09/16 00:21:59;;;;;;;;;;;19.40;96.10;;;;;;5071386;28;19920;-73
2022/09/16 00:24:27;;;;;;;;;;;19.40;95.30;;;;;;5072050;28;19909;-72
2022/09/16 00:26:53;;;;;;;;;;;19.50;95.70;;;;;;5071258;28;19908;-76
2022/09/16 00:29:20;;;;;;;;;;;19.60;95.50;;;;;;5071731;28;19908;-73
2022/09/16 00:31:47;;;;;;;;;;;19.60;95.00;;;;;;5071830;28;19923;-72
2022/09/16 00:34:13;;;;;;;;;;;19.70;94.50;;;;;;5071210;28;19923;-75
2022/09/16 00:36:40;;;;;;;;;;;19.90;93.50;;;;;;5071835;28;19912;-74
2022/09/16 00:39:06;;;;;;;;;;;19.90;93.70;;;;;;5072052;28;19915;-72
2022/09/16 00:41:33;;;;;;;;;;;20.00;94.10;;;;;;5071899;28;19908;-71
2022/09/16 00:44:01;;;;;;;;;;;20.10;93.60;;;;;;5071276;28;19912;-73
2022/09/16 00:46:39;;;;;;;;;;;20.10;93.70;;;;;;5071275;28;20261;-74
2022/09/16 00:49:18;;;;;;;;;;;20.10;93.20;;;;;;5067405;28;19912;-72
2022/09/16 00:51:46;;;;;;;;;;;20.20;93.70;;;;;;5071607;28;20372;-73
2022/09/16 00:54:14;;;;;;;;;;;20.30;92.80;;;;;;5069449;28;19963;-75
2022/09/16 00:56:42;;;;;;;;;;;20.40;93.60;;;;;;5070522;28;20003;-73
2022/09/16 00:59:14;;;;;;;;;;;20.50;92.40;;;;;;5071083;28;20058;-73
2022/09/16 01:01:43;;;;;;;;;;;20.60;92.70;;;;;;5070916;28;19908;-74
2022/09/16 01:04:14;;;;;;;;;;;20.60;92.20;;;;;;5071193;28;19913;-74
2022/09/16 01:06:41;;;;;;;;;;;20.80;92.20;;;;;;5065529;28;19949;-73
2022/09/16 01:09:08;;;;;;;;;;;20.90;91.40;;;;;;5052177;28;19909;-75
2022/09/16 01:11:34;;;;;;;;;;;21.00;91.30;;;;;;5061284;28;20377;-72
2022/09/16 01:16:56;;;;;;;;;;;21.20;90.60;;;;;;5071771;28;20050;-73
2022/09/16 01:19:29;;;;;;;;;;;21.20;90.20;;;;;;5071312;28;19958;-72
2022/09/16 01:22:12;;;;;;;;;;;21.30;89.50;;;;;;5071004;28;19908;-73
2022/09/16 01:24:38;;;;;;;;;;;21.40;89.70;;;;;;5071600;28;19908;-73
2022/09/16 01:27:23;;;;;;;;;;;21.50;88.40;;;;;;5071499;28;19944;-72
2022/09/16 01:30:08;;;;;;;;;;;21.60;89.30;;;;;;5066181;28;20006;-73
2022/09/16 01:32:53;;;;;;;;;;;21.70;87.60;;;;;;5070349;28;19921;-73
2022/09/16 01:35:29;;;;;;;;;;;21.80;87.30;;;;;;5071212;28;19931;-72
2022/09/16 01:37:55;;;;;;;;;;;21.90;87.80;;;;;;5070879;28;19908;-73
2022/09/16 01:40:22;;;;;;;;;;;22.00;86.90;;;;;;5070939;28;19927;-73
2022/09/16 01:43:12;;;;;;;;;;;22.20;87.20;;;;;;5069868;28;19913;-72
2022/09/16 01:45:41;;;;;;;;;;;22.30;85.30;;;;;;5071359;28;19995;-72
2022/09/16 01:48:30;;;;;;;;;;;22.50;85.00;;;;;;5070787;28;20482;-74
2022/09/16 01:51:11;;;;;;;;;;;22.60;84.90;;;;;;5066070;28;19927;-73
2022/09/16 01:53:43;;;;;;;;;;;22.60;83.80;;;;;;5052779;28;19955;-74
2022/09/16 01:56:16;;;;;;;;;;;22.70;83.90;;;;;;5051676;28;20361;-73
2022/09/16 01:58:43;;;;;;;;;;;22.60;84.50;;;;;;5070777;28;20385;-73
2022/09/16 02:01:16;;;;;;;;;;;22.60;84.30;;;;;;5072661;28;20011;-80
2022/09/16 02:03:45;;;;;;;;;;;22.60;83.80;;;;;;5073785;28;19927;-77
2022/09/16 02:06:15;;;;;;;;;;;22.70;83.00;;;;;;5073552;28;20001;-76
2022/09/16 02:08:47;;;;;;;;;;;23.00;83.40;;;;;;5074481;28;20361;-75
2022/09/16 02:11:15;;;;;;;;;;;23.30;83.60;;;;;;5073419;28;19920;-76
2022/09/16 02:13:45;;;;;;;;;;;23.70;82.50;;;;;;5073096;28;19952;-73
2022/09/16 02:16:14;;;;;;;;;;;23.80;82.20;;;;;;5071733;28;19920;-75
2022/09/16 02:18:43;;;;;;;;;;;23.90;81.70;;;;;;5070827;28;20438;-75
2022/09/16 02:21:13;;;;;;;;;;;23.90;81.00;;;;;;5067582;28;20460;-77
2022/09/16 02:23:41;;;;;;;;;;;23.90;81.20;;;;;;5073414;28;19919;-76
2022/09/16 02:26:10;;;;;;;;;;;24.00;80.90;;;;;;5054549;28;20333;-76
2022/09/16 02:28:38;;;;;;;;;;;24.00;78.80;;;;;;5072028;28;20007;-76
2022/09/16 02:31:06;;;;;;;;;;;23.80;77.50;;;;;;5063887;28;19913;-75
2022/09/16 02:33:43;;;;;;;;;;;23.50;76.80;;;;;;5057645;28;19917;-77
2022/09/16 02:36:11;;;;;;;;;;;23.30;77.30;;;;;;5064802;28;19962;-75
2022/09/16 02:38:40;;;;;;;;;;;23.60;76.90;;;;;;5067571;28;19912;-77
2022/09/16 02:41:13;;;;;;;;;;;24.00;72.90;;;;;;5070738;28;19975;-78
2022/09/16 02:43:44;;;;;;;;;;;24.30;71.10;;;;;;5072636;28;19935;-74
2022/09/16 02:46:13;;;;;;;;;;;24.80;68.40;;;;;;5068790;28;19948;-75
2022/09/16 02:48:58;;;;;;;;;;;25.30;65.90;;;;;;5073547;28;19908;-77
2022/09/16 02:51:31;;;;;;;;;;;26.10;64.30;;;;;;5073091;28;19955;-75
2022/09/16 02:54:13;;;;;;;;;;;26.70;59.00;;;;;;5072534;28;19917;-76
2022/09/16 02:56:41;;;;;;;;;;;27.00;58.70;;;;;;5068922;28;19916;-76
2022/09/16 02:59:10;;;;;;;;;;;27.50;56.60;;;;;;5059087;28;19920;-74
2022/09/16 03:01:40;;;;;;;;;;;27.90;56.40;;;;;;5071998;28;20031;-73
2022/09/16 03:04:11;;;;;;;;;;;28.40;55.00;;;;;;5073019;28;19912;-72
2022/09/16 03:06:38;;;;;;;;;;;28.80;54.00;;;;;;5072835;28;20454;-73
2022/09/16 03:09:07;;;;;;;;;;;29.20;54.00;;;;;;5072902;28;19912;-73
2022/09/16 03:11:33;;;;;;;;;;;29.20;51.90;;;;;;5071076;28;19916;-72
2022/09/16 03:14:00;;;;;;;;;;;29.50;54.30;;;;;;5055108;28;20157;-73
2022/09/16 03:16:33;;;;;;;;;;;29.50;50.90;;;;;;5065730;28;19916;-73
2022/09/16 03:19:14;;;;;;;;;;;29.80;52.10;;;;;;5071024;28;19955;-74
2022/09/16 03:21:40;;;;;;;;;;;30.20;51.30;;;;;;5071386;28;19909;-74
2022/09/16 03:24:10;;;;;;;;;;;30.50;49.80;;;;;;5071294;28;19935;-77
2022/09/16 03:26:42;;;;;;;;;;;30.40;50.10;;;;;;5070469;28;20357;-76
2022/09/16 03:29:21;;;;;;;;;;;30.50;49.30;;;;;;5071005;28;19908;-73
2022/09/16 03:31:47;;;;;;;;;;;30.70;49.00;;;;;;5068214;28;19920;-73
2022/09/16 03:34:14;;;;;;;;;;;30.70;48.20;;;;;;5069464;28;19939;-72
2022/09/16 03:36:43;;;;;;;;;;;31.00;48.70;;;;;;5064776;28;19985;-81
2022/09/16 03:39:10;;;;;;;;;;;31.30;48.70;;;;;;5062674;28;19913;-77
2022/09/16 03:41:37;;;;;;;;;;;31.50;47.30;;;;;;5072634;28;19908;-78
2022/09/16 03:44:04;;;;;;;;;;;31.20;47.10;;;;;;5069783;28;20273;-77
2022/09/16 03:46:31;;;;;;;;;;;30.80;47.40;;;;;;5067958;28;20427;-79
2022/09/16 03:48:58;;;;;;;;;;;31.00;48.10;;;;;;5069028;28;19958;-72
2022/09/16 03:51:25;;;;;;;;;;;31.30;48.20;;;;;;5067103;28;19913;-72
2022/09/16 03:53:52;;;;;;;;;;;31.70;47.80;;;;;;5070259;28;19913;-73
2022/09/16 03:56:19;;;;;;;;;;;32.10;47.60;;;;;;5057865;28;20764;-73
2022/09/16 03:58:49;;;;;;;;;;;32.40;48.30;;;;;;5059500;28;19920;-78
2022/09/16 04:01:16;;;;;;;;;;;32.20;46.10;;;;;;5052609;28;20424;-75
2022/09/16 04:03:43;;;;;;;;;;;32.00;47.10;;;;;;5071743;28;19914;-77
2022/09/16 04:06:09;;;;;;;;;;;31.60;47.20;;;;;;5070514;28;20011;-79
2022/09/16 04:08:36;;;;;;;;;;;31.40;45.80;;;;;;5071265;28;19978;-74
2022/09/16 04:11:04;;;;;;;;;;;31.40;47.20;;;;;;5070427;28;20411;-74
2022/09/16 04:13:34;;;;;;;;;;;31.70;47.10;;;;;;5071420;28;20342;-74
2022/09/16 04:16:02;;;;;;;;;;;31.60;46.40;;;;;;5071607;28;19915;-73
2022/09/16 04:18:32;;;;;;;;;;;32.20;47.80;;;;;;5072171;28;19952;-73
2022/09/16 04:20:59;;;;;;;;;;;32.40;47.50;;;;;;5071599;28;19978;-74
2022/09/16 04:23:26;;;;;;;;;;;32.50;46.40;;;;;;5071371;28;20331;-74
2022/09/16 04:25:54;;;;;;;;;;;32.50;46.40;;;;;;5069161;28;20265;-74
2022/09/16 04:28:21;;;;;;;;;;;32.60;45.60;;;;;;5058788;28;19978;-75
2022/09/16 04:30:47;;;;;;;;;;;32.50;44.90;;;;;;5064555;28;19922;-76
2022/09/16 04:33:14;;;;;;;;;;;32.00;44.40;;;;;;5065864;28;20017;-80
2022/09/16 04:35:41;;;;;;;;;;;31.90;45.40;;;;;;5071496;28;19976;-76
2022/09/16 04:38:07;;;;;;;;;;;32.20;46.20;;;;;;5051313;28;20332;-77
2022/09/16 04:40:34;;;;;;;;;;;32.40;45.90;;;;;;5071301;28;19908;-76
2022/09/16 04:43:01;;;;;;;;;;;32.70;45.90;;;;;;5071045;28;19908;-81
2022/09/16 04:45:27;;;;;;;;;;;33.00;46.50;;;;;;5071158;28;19919;-77
2022/09/16 04:47:57;;;;;;;;;;;33.30;46.30;;;;;;5071005;28;19935;-78
2022/09/16 04:50:24;;;;;;;;;;;33.40;43.90;;;;;;5071448;28;19927;-79
2022/09/16 04:52:51;;;;;;;;;;;33.30;43.90;;;;;;5071252;28;19908;-76
2022/09/16 04:55:21;;;;;;;;;;;33.30;44.60;;;;;;5070290;28;19921;-75
2022/09/16 04:57:48;;;;;;;;;;;33.40;43.70;;;;;;5070604;28;19982;-75
2022/09/16 05:00:15;;;;;;;;;;;32.90;45.30;;;;;;5071252;28;20050;-81
2022/09/16 05:02:44;;;;;;;;;;;32.80;44.80;;;;;;5053552;28;20389;-73
2022/09/16 05:05:11;;;;;;;;;;;32.50;45.90;;;;;;5071137;28;19935;-74
2022/09/16 05:07:38;;;;;;;;;;;32.60;45.10;;;;;;5070917;28;19916;-75
2022/09/16 05:10:05;;;;;;;;;;;32.60;45.00;;;;;;5071230;28;19917;-73
2022/09/16 05:12:32;;;;;;;;;;;32.10;44.80;;;;;;5070800;28;19915;-74
2022/09/16 05:14:58;;;;;;;;;;;31.30;44.20;;;;;;5070781;28;20016;-74
2022/09/16 05:17:25;;;;;;;;;;;30.70;45.00;;;;;;5070425;28;19915;-74
2022/09/16 05:19:51;;;;;;;;;;;30.40;46.50;;;;;;5071834;28;19964;-74
2022/09/16 05:22:19;;;;;;;;;;;30.70;46.70;;;;;;5053400;28;19955;-75
2022/09/16 05:24:46;;;;;;;;;;;30.60;46.00;;;;;;5061150;28;19912;-74
2022/09/16 05:27:13;;;;;;;;;;;29.90;46.20;;;;;;5070618;28;19916;-78
2022/09/16 05:29:39;;;;;;;;;;;29.40;47.80;;;;;;5070189;28;20369;-73
2022/09/16 05:32:06;;;;;;;;;;;29.30;46.40;;;;;;5070201;28;19909;-77
2022/09/16 05:34:35;;;;;;;;;;;29.70;46.40;;;;;;5071851;28;19963;-80
2022/09/16 05:37:02;;;;;;;;;;;30.00;46.90;;;;;;5074580;28;19913;-76
2022/09/16 05:39:28;;;;;;;;;;;30.50;46.00;;;;;;5067021;28;19920;-73
2022/09/16 05:41:56;;;;;;;;;;;31.00;44.90;;;;;;5071927;28;19954;-75
2022/09/16 05:44:23;;;;;;;;;;;30.80;45.00;;;;;;5072645;28;19943;-73
2022/09/16 05:46:50;;;;;;;;;;;30.70;45.80;;;;;;5073954;28;19916;-74
2022/09/16 05:49:19;;;;;;;;;;;30.50;45.50;;;;;;5073961;28;19908;-76
2022/09/16 05:51:46;;;;;;;;;;;30.50;46.20;;;;;;5074142;28;20273;-75
2022/09/16 05:54:13;;;;;;;;;;;30.70;46.20;;;;;;5074229;28;19950;-72
2022/09/16 05:56:40;;;;;;;;;;;30.90;45.60;;;;;;5074293;28;19920;-75
2022/09/16 05:59:06;;;;;;;;;;;30.60;45.40;;;;;;5072670;28;19924;-75
2022/09/16 06:01:34;;;;;;;;;;;30.50;46.40;;;;;;5070478;28;19952;-75
2022/09/16 06:04:03;;;;;;;;;;;30.60;46.90;;;;;;5053502;28;19915;-76
2022/09/16 06:06:30;;;;;;;;;;;30.50;46.70;;;;;;5060198;28;20029;-78
2022/09/16 06:08:59;;;;;;;;;;;29.70;46.00;;;;;;5073469;28;19915;-79
2022/09/16 06:11:27;;;;;;;;;;;29.10;46.40;;;;;;5073758;28;19919;-75
2022/09/16 06:13:58;;;;;;;;;;;29.00;47.20;;;;;;5067320;28;19927;-77
2022/09/16 06:16:26;;;;;;;;;;;28.40;46.90;;;;;;5073239;28;20349;-77
2022/09/16 06:18:53;;;;;;;;;;;27.70;47.70;;;;;;5073230;28;19904;-75
2022/09/16 06:21:20;;;;;;;;;;;27.50;48.00;;;;;;5071064;28;20357;-75
2022/09/16 06:23:47;;;;;;;;;;;27.80;49.10;;;;;;5071414;28;19909;-76
2022/09/16 06:26:15;;;;;;;;;;;28.30;47.90;;;;;;5071995;28;19912;-76
2022/09/16 06:28:42;;;;;;;;;;;28.60;49.60;;;;;;5071586;28;19909;-76
2022/09/16 06:31:16;;;;;;;;;;;28.10;47.20;;;;;;5071573;28;19927;-76
2022/09/16 06:33:43;;;;;;;;;;;27.40;48.80;;;;;;5070644;28;19970;-76
2022/09/16 06:36:11;;;;;;;;;;;27.10;48.80;;;;;;5072988;28;19916;-75
2022/09/16 06:38:38;;;;;;;;;;;27.40;48.80;;;;;;5072287;28;19915;-76
2022/09/16 06:41:05;;;;;;;;;;;27.90;48.30;;;;;;5073199;28;20368;-76
2022/09/16 06:43:32;;;;;;;;;;;28.00;48.20;;;;;;5073438;28;19908;-78
2022/09/16 06:46:01;;;;;;;;;;;28.00;48.80;;;;;;5065820;28;20074;-77
2022/09/16 06:48:28;;;;;;;;;;;27.90;48.70;;;;;;5063057;28;21251;-77
2022/09/16 06:50:59;;;;;;;;;;;27.30;47.50;;;;;;5051957;28;19916;-76
2022/09/16 06:53:25;;;;;;;;;;;26.90;48.20;;;;;;5072777;28;19915;-75
2022/09/16 06:55:52;;;;;;;;;;;26.30;48.80;;;;;;5072447;28;19939;-76
2022/09/16 06:58:19;;;;;;;;;;;25.70;49.20;;;;;;5072396;28;19934;-76
2022/09/16 07:00:46;;;;;;;;;;;25.40;49.80;;;;;;5072698;28;19937;-76
2022/09/16 07:03:12;;;;;;;;;;;25.00;49.60;;;;;;5072782;28;20268;-76
2022/09/16 07:05:39;;;;;;;;;;;24.70;50.50;;;;;;5072275;28;19944;-75
2022/09/16 07:08:06;;;;;;;;;;;24.40;51.20;;;;;;5071505;28;19959;-76
2022/09/16 07:10:32;;;;;;;;;;;24.20;50.80;;;;;;5072695;28;20352;-73
2022/09/16 07:12:59;;;;;;;;;;;24.00;51.70;;;;;;5072369;28;20015;-73
2022/09/16 07:15:26;;;;;;;;;;;24.00;52.00;;;;;;5071805;28;20022;-73
2022/09/16 07:17:54;;;;;;;;;;;23.90;51.70;;;;;;5071297;28;19957;-74
2022/09/16 07:20:20;;;;;;;;;;;23.70;52.50;;;;;;5072144;28;19931;-73
2022/09/16 07:22:49;;;;;;;;;;;23.50;53.10;;;;;;5072305;28;20388;-71
2022/09/16 07:25:16;;;;;;;;;;;23.30;52.60;;;;;;5072094;28;20361;-73
2022/09/16 07:27:43;;;;;;;;;;;23.20;54.10;;;;;;5071734;28;19923;-72
2022/09/16 07:30:09;;;;;;;;;;;23.10;54.10;;;;;;5066267;28;19930;-71
2022/09/16 07:32:37;;;;;;;;;;;23.00;53.80;;;;;;5071246;28;19917;-71
2022/09/16 07:35:04;;;;;;;;;;;22.90;54.00;;;;;;5071719;28;19917;-74
2022/09/16 07:37:30;;;;;;;;;;;22.70;53.40;;;;;;5070113;28;19917;-72
2022/09/16 07:39:57;;;;;;;;;;;22.60;54.20;;;;;;5069113;28;20356;-73
2022/09/16 07:42:23;;;;;;;;;;;22.50;55.20;;;;;;5057632;28;19947;-73
2022/09/16 07:44:50;;;;;;;;;;;22.40;54.70;;;;;;5070985;28;19991;-73
2022/09/16 07:47:17;;;;;;;;;;;22.30;55.50;;;;;;5069991;28;19935;-73
2022/09/16 07:49:43;;;;;;;;;;;22.20;55.10;;;;;;5071506;28;19909;-72
2022/09/16 07:52:10;;;;;;;;;;;22.10;55.30;;;;;;5052504;28;19955;-73
2022/09/16 07:54:36;;;;;;;;;;;22.10;55.40;;;;;;5071555;28;19920;-72
2022/09/16 07:57:03;;;;;;;;;;;22.00;55.80;;;;;;5069304;28;19978;-72
2022/09/16 07:59:30;;;;;;;;;;;21.90;55.90;;;;;;5069573;28;19920;-70
2022/09/16 08:01:56;;;;;;;;;;;21.80;56.80;;;;;;5068799;28;19956;-70
2022/09/16 08:04:23;;;;;;;;;;;21.80;56.40;;;;;;5067435;28;19913;-73
2022/09/16 08:06:50;;;;;;;;;;;21.70;57.10;;;;;;5070728;28;19917;-73
2022/09/16 08:09:16;;;;;;;;;;;21.60;58.10;;;;;;5050803;28;20504;-72
2022/09/16 08:11:43;;;;;;;;;;;21.60;57.70;;;;;;5050697;28;19909;-73
2022/09/16 08:14:10;;;;;;;;;;;21.40;58.00;;;;;;5068628;28;19955;-73
2022/09/16 08:16:36;;;;;;;;;;;21.40;58.30;;;;;;5070044;28;19975;-74
2022/09/16 08:19:03;;;;;;;;;;;21.30;58.60;;;;;;5070595;28;19908;-75
2022/09/16 08:21:30;;;;;;;;;;;21.20;59.40;;;;;;5052288;28;19916;-73
2022/09/16 08:23:57;;;;;;;;;;;21.10;59.20;;;;;;5069610;28;19909;-75
2022/09/16 08:26:24;;;;;;;;;;;21.10;59.80;;;;;;5064577;28;19916;-72
2022/09/16 08:28:51;;;;;;;;;;;21.10;60.10;;;;;;5063974;28;19961;-72
2022/09/16 08:31:18;;;;;;;;;;;21.00;61.00;;;;;;5062102;28;20381;-74
2022/09/16 08:33:44;;;;;;;;;;;20.90;61.70;;;;;;5061575;28;19973;-75
2022/09/16 08:36:13;;;;;;;;;;;20.80;62.30;;;;;;5042319;28;19935;-74
2022/09/16 08:38:40;;;;;;;;;;;20.70;63.50;;;;;;5060446;28;20007;-73
2022/09/16 08:41:24;;;;;;;;;;;20.60;63.90;;;;;;5064790;28;20397;-72
2022/09/16 08:43:58;;;;;;;;;;;20.50;63.90;;;;;;5056358;28;20028;-73
2022/09/16 08:46:30;;;;;;;;;;;20.40;65.60;;;;;;5066174;28;19915;-72
2022/09/16 08:49:14;;;;;;;;;;;20.30;63.50;;;;;;5065539;28;19965;-72
2022/09/16 08:51:41;;;;;;;;;;;20.30;64.60;;;;;;5061049;28;20376;-72
2022/09/16 08:54:14;;;;;;;;;;;20.30;64.50;;;;;;5062021;28;19920;-72
2022/09/16 08:56:43;;;;;;;;;;;20.30;65.00;;;;;;5066616;28;19956;-72
2022/09/16 08:59:12;;;;;;;;;;;20.30;65.20;;;;;;5068974;28;19943;-73
2022/09/16 09:02:07;;;;;;;;;;;20.20;66.40;;;;;;5069618;28;20373;-72
2022/09/16 09:04:34;;;;;;;;;;;20.30;66.20;;;;;;5068660;28;19915;-73
2022/09/16 09:07:00;;;;;;;;;;;20.20;65.00;;;;;;5069524;28;20351;-71
2022/09/16 09:09:48;;;;;;;;;;;20.10;65.80;;;;;;5072745;28;19912;-72
2022/09/16 09:12:33;;;;;;;;;;;20.10;66.10;;;;;;5074094;28;19916;-72
2022/09/16 09:15:17;;;;;;;;;;;20.00;66.20;;;;;;5071809;28;19920;-72
2022/09/16 09:18:02;;;;;;;;;;;20.00;65.90;;;;;;5064196;28;19944;-72
2022/09/16 09:20:28;;;;;;;;;;;20.00;66.00;;;;;;5064163;28;19912;-70
2022/09/16 09:23:10;;;;;;;;;;;20.00;66.60;;;;;;5066121;28;20412;-71
2022/09/16 09:25:46;;;;;;;;;;;20.00;66.60;;;;;;5063320;28;19959;-72
2022/09/16 09:28:16;;;;;;;;;;;20.00;66.70;;;;;;5064565;28;19917;-72
2022/09/16 09:30:54;;;;;;;;;;;20.00;67.60;;;;;;5066072;28;20319;-72
2022/09/16 09:33:39;;;;;;;;;;;19.90;67.40;;;;;;5063981;28;19962;-73
2022/09/16 09:36:05;;;;;;;;;;;19.90;67.20;;;;;;5074027;28;20369;-72
2022/09/16 09:38:42;;;;;;;;;;;19.80;67.50;;;;;;5074342;28;20167;-75
2022/09/16 09:41:12;;;;;;;;;;;19.80;67.80;;;;;;5073585;28;20013;-74
2022/09/16 09:43:41;;;;;;;;;;;19.70;67.20;;;;;;5071982;28;20258;-73
2022/09/16 09:46:12;;;;;;;;;;;19.60;67.60;;;;;;5074193;28;19916;-73
2022/09/16 09:48:47;;;;;;;;;;;19.60;67.60;;;;;;5074298;28;19962;-73
2022/09/16 09:51:39;;;;;;;;;;;19.50;67.60;;;;;;5074078;28;19913;-74
2022/09/16 09:54:32;;;;;;;;;;;19.40;67.90;;;;;;5042578;28;19922;-74
2022/09/16 09:56:59;;;;;;;;;;;19.40;68.20;;;;;;5071672;28;19966;-74
2022/09/16 09:59:29;;;;;;;;;;;19.40;68.40;;;;;;5073839;28;19920;-73
2022/09/16 10:01:56;;;;;;;;;;;19.40;68.10;;;;;;5073804;28;19931;-75
2022/09/16 10:04:23;;;;;;;;;;;19.40;68.70;;;;;;5074335;28;19912;-74
2022/09/16 10:06:52;;;;;;;;;;;19.30;68.30;;;;;;5073585;28;19920;-73
2022/09/16 10:09:20;;;;;;;;;;;19.30;69.00;;;;;;5073705;28;19913;-73
2022/09/16 10:11:51;;;;;;;;;;;19.30;68.20;;;;;;5072000;28;19913;-74
2022/09/16 10:14:22;;;;;;;;;;;19.30;68.50;;;;;;5071823;28;19916;-73
2022/09/16 10:16:50;;;;;;;;;;;19.20;68.80;;;;;;5071150;28;19915;-72
2022/09/16 10:19:24;;;;;;;;;;;19.20;68.40;;;;;;5072098;28;20464;-75
2022/09/16 10:22:08;;;;;;;;;;;19.10;68.40;;;;;;5070518;28;19916;-76
2022/09/16 10:24:42;;;;;;;;;;;19.10;68.60;;;;;;5051791;28;19909;-76
2022/09/16 10:27:18;;;;;;;;;;;19.10;68.80;;;;;;5064650;28;19913;-74
2022/09/16 10:29:44;;;;;;;;;;;19.00;69.30;;;;;;5071863;28;19934;-76
2022/09/16 10:32:15;;;;;;;;;;;19.10;70.00;;;;;;5071878;28;19912;-74
2022/09/16 10:34:42;;;;;;;;;;;19.00;69.70;;;;;;5072390;28;20339;-76
2022/09/16 10:37:11;;;;;;;;;;;19.00;70.30;;;;;;5072147;28;19916;-76
2022/09/16 10:39:39;;;;;;;;;;;19.00;70.00;;;;;;5053346;28;19908;-75
2022/09/16 10:42:26;;;;;;;;;;;19.00;71.10;;;;;;5072490;28;19995;-75
2022/09/16 10:45:01;;;;;;;;;;;18.90;71.20;;;;;;5073379;28;19912;-76
2022/09/16 10:47:30;;;;;;;;;;;18.90;71.60;;;;;;5073550;28;19913;-75
2022/09/16 10:50:00;;;;;;;;;;;18.80;71.70;;;;;;5073716;28;19909;-77
2022/09/16 10:52:28;;;;;;;;;;;18.80;71.50;;;;;;5073510;28;20020;-77
2022/09/16 10:54:55;;;;;;;;;;;18.80;71.80;;;;;;5073220;28;19970;-77
2022/09/16 10:57:24;;;;;;;;;;;18.80;72.00;;;;;;5073220;28;19959;-76
2022/09/16 10:59:58;;;;;;;;;;;18.70;72.80;;;;;;5072565;28;20349;-76
2022/09/16 11:02:37;;;;;;;;;;;18.70;72.40;;;;;;5072863;28;19913;-76
2022/09/16 11:05:21;;;;;;;;;;;18.70;73.20;;;;;;5073631;28;20003;-77
2022/09/16 11:07:53;;;;;;;;;;;18.70;74.00;;;;;;5072413;28;19959;-77
2022/09/16 11:10:27;;;;;;;;;;;18.60;74.30;;;;;;5073070;28;19909;-76
2022/09/16 11:13:00;;;;;;;;;;;18.50;74.70;;;;;;5068827;28;19908;-76
2022/09/16 11:15:32;;;;;;;;;;;18.40;74.20;;;;;;5072951;28;19916;-76
2022/09/16 11:18:08;;;;;;;;;;;18.40;74.30;;;;;;5072456;28;19918;-77
2022/09/16 11:20:35;;;;;;;;;;;18.30;73.80;;;;;;5073026;28;19913;-75
2022/09/16 11:23:25;;;;;;;;;;;18.30;74.80;;;;;;5054914;28;19943;-75
2022/09/16 11:25:58;;;;;;;;;;;18.30;75.30;;;;;;5052603;28;19948;-74
2022/09/16 11:28:50;;;;;;;;;;;18.20;75.60;;;;;;5072295;28;19912;-75
2022/09/16 11:31:29;;;;;;;;;;;18.10;74.50;;;;;;5069046;28;19912;-77
2022/09/16 11:33:56;;;;;;;;;;;18.10;75.00;;;;;;5072128;28;19999;-81
2022/09/16 11:36:31;;;;;;;;;;;18.10;74.50;;;;;;5071854;28;19987;-77
2022/09/16 11:39:10;;;;;;;;;;;18.00;74.50;;;;;;5072575;28;19919;-76
2022/09/16 11:41:40;;;;;;;;;;;18.10;75.00;;;;;;5072428;28;19908;-77
2022/09/16 11:44:12;;;;;;;;;;;18.10;74.80;;;;;;5071905;28;20393;-77
2022/09/16 11:46:48;;;;;;;;;;;18.00;74.50;;;;;;5072116;28;19912;-75
2022/09/16 11:49:33;;;;;;;;;;;18.00;74.70;;;;;;5072700;28;19909;-74
2022/09/16 11:52:18;;;;;;;;;;;18.00;75.00;;;;;;5072063;28;19920;-76
2022/09/16 11:55:03;;;;;;;;;;;18.10;74.40;;;;;;5072053;28;20476;-74
2022/09/16 11:57:34;;;;;;;;;;;18.00;73.60;;;;;;5071292;28;19921;-75
2022/09/16 12:00:05;;;;;;;;;;;18.00;74.00;;;;;;5072058;28;19920;-76
2022/09/16 12:02:31;;;;;;;;;;;18.00;73.70;;;;;;5072232;28;19913;-76
2022/09/16 12:05:13;;;;;;;;;;;18.00;73.90;;;;;;5071673;28;19912;-77
2022/09/16 12:07:47;;;;;;;;;;;18.00;73.20;;;;;;5071162;28;20372;-76
2022/09/16 12:10:17;;;;;;;;;;;18.00;73.40;;;;;;5070821;28;19912;-75
2022/09/16 12:12:52;;;;;;;;;;;18.00;73.00;;;;;;5071252;28;20280;-76
2022/09/16 12:15:22;;;;;;;;;;;17.90;73.20;;;;;;5072375;28;19917;-75
2022/09/16 12:17:56;;;;;;;;;;;18.00;72.70;;;;;;5071420;28;19916;-75
2022/09/16 12:20:28;;;;;;;;;;;17.90;71.50;;;;;;5071525;28;20631;-74
2022/09/16 12:23:24;;;;;;;;;;;17.90;71.00;;;;;;5063786;28;19912;-74
2022/09/16 12:26:08;;;;;;;;;;;18.00;71.00;;;;;;5050089;28;19963;-73
2022/09/16 12:29:10;;;;;;;;;;;18.00;69.40;;;;;;5062310;28;19913;-75
2022/09/16 12:31:42;;;;;;;;;;;18.10;69.90;;;;;;5032330;28;19917;-71
2022/09/16 12:34:18;;;;;;;;;;;18.10;69.10;;;;;;5054784;28;19956;-73
2022/09/16 12:36:48;;;;;;;;;;;18.10;69.70;;;;;;5061778;28;20011;-72
2022/09/16 12:39:14;;;;;;;;;;;18.20;69.90;;;;;;5061505;28;19921;-73
2022/09/16 12:42:13;;;;;;;;;;;18.20;69.20;;;;;;5061358;28;19948;-72
2022/09/16 12:44:54;;;;;;;;;;;18.20;69.50;;;;;;5028014;28;19920;-71
2022/09/16 12:47:30;;;;;;;;;;;18.10;69.10;;;;;;5061846;28;20316;-71
2022/09/16 12:50:15;;;;;;;;;;;18.10;69.70;;;;;;5063832;28;20273;-71
2022/09/16 12:52:50;;;;;;;;;;;18.10;70.30;;;;;;5065546;28;19974;-71
2022/09/16 12:55:26;;;;;;;;;;;18.10;71.40;;;;;;5061101;28;19931;-72
2022/09/16 12:58:09;;;;;;;;;;;18.10;69.90;;;;;;5042170;28;19919;-72
2022/09/16 13:00:55;;;;;;;;;;;18.10;70.30;;;;;;5060837;28;19927;-71
2022/09/16 13:03:23;;;;;;;;;;;18.00;70.70;;;;;;5050221;28;19913;-72
2022/09/16 13:05:51;;;;;;;;;;;18.00;70.70;;;;;;5065374;28;20029;-73
2022/09/16 13:08:22;;;;;;;;;;;18.00;70.90;;;;;;5088331;22;19932;-72
2022/09/16 13:11:01;;;;;;;;;;;18.00;70.70;;;;;;5084534;28;19912;-69
2022/09/16 13:13:33;;;;;;;;;;;18.00;70.60;;;;;;5078278;28;19912;-67
2022/09/16 13:16:01;;;;;;;;;;;17.90;70.90;;;;;;5074039;28;21408;-70
2022/09/16 13:18:42;;;;;;;;;;;17.90;71.00;;;;;;5091011;28;19912;-68
2022/09/16 13:21:22;;;;;;;;;;;17.90;71.00;;;;;;5076267;28;19991;-71
2022/09/16 13:23:53;;;;;;;;;;;17.90;70.80;;;;;;5073978;28;20349;-71
2022/09/16 13:26:19;;;;;;;;;;;18.00;71.00;;;;;;5091100;28;20356;-70
2022/09/16 13:28:47;;;;;;;;;;;18.00;70.70;;;;;;5091202;28;19912;-72
2022/09/16 13:31:15;;;;;;;;;;;18.00;71.00;;;;;;5091831;28;20034;-72
2022/09/16 13:33:43;;;;;;;;;;;17.90;71.20;;;;;;5091335;28;19908;-72
2022/09/16 13:36:19;;;;;;;;;;;17.90;71.70;;;;;;5090486;28;19915;-70
2022/09/16 13:38:48;;;;;;;;;;;18.00;71.80;;;;;;5081563;28;20330;-72
2022/09/16 13:41:28;;;;;;;;;;;17.90;71.50;;;;;;5070932;28;20483;-70
2022/09/16 13:43:55;;;;;;;;;;;17.90;71.70;;;;;;5071142;28;19959;-71
2022/09/16 13:46:32;;;;;;;;;;;17.90;71.50;;;;;;5089409;28;19974;-70
2022/09/16 13:49:09;;;;;;;;;;;17.90;71.70;;;;;;5091021;28;19916;-72
2022/09/16 13:51:43;;;;;;;;;;;17.90;71.90;;;;;;5091213;28;19908;-70
2022/09/16 13:54:19;;;;;;;;;;;17.90;71.90;;;;;;5085158;28;19974;-69
2022/09/16 13:56:46;;;;;;;;;;;17.90;71.80;;;;;;5092575;28;20448;-69
2022/09/16 13:59:35;;;;;;;;;;;17.90;72.30;;;;;;5095645;28;19908;-70
2022/09/16 14:02:01;;;;;;;;;;;17.90;72.00;;;;;;5089897;28;19913;-72
2022/09/16 14:04:46;;;;;;;;;;;17.90;72.20;;;;;;5076036;28;20257;-70
2022/09/16 14:07:38;;;;;;;;;;;17.90;72.20;;;;;;5081545;28;19913;-72
2022/09/16 14:10:10;;;;;;;;;;;17.90;72.30;;;;;;5074619;28;19920;-72
2022/09/16 14:12:55;;;;;;;;;;;17.90;72.40;;;;;;5074872;28;19916;-73
2022/09/16 14:15:22;;;;;;;;;;;17.90;72.80;;;;;;5084408;28;19986;-72
2022/09/16 14:17:52;;;;;;;;;;;17.90;72.60;;;;;;5095357;28;20329;-71
2022/09/16 14:20:21;;;;;;;;;;;17.80;73.00;;;;;;5094732;28;19908;-67
2022/09/16 14:22:47;;;;;;;;;;;17.80;73.20;;;;;;5081851;28;19913;-70
2022/09/16 14:25:24;;;;;;;;;;;17.80;73.00;;;;;;5074780;28;19916;-70
2022/09/16 14:27:51;;;;;;;;;;;17.80;73.30;;;;;;5089979;28;20276;-71
2022/09/16 14:30:18;;;;;;;;;;;17.80;73.30;;;;;;5094648;28;19935;-68
2022/09/16 14:32:46;;;;;;;;;;;17.80;73.40;;;;;;5094489;28;19908;-70
2022/09/16 14:35:16;;;;;;;;;;;17.70;73.20;;;;;;5094341;28;20444;-72
2022/09/16 14:37:44;;;;;;;;;;;17.70;73.40;;;;;;5094464;28;19908;-69
2022/09/16 14:40:13;;;;;;;;;;;17.70;73.70;;;;;;5074178;28;19913;-71
2022/09/16 14:42:52;;;;;;;;;;;17.70;73.30;;;;;;5086693;28;20388;-73